Terminal Aerodrome Forecast
Issued by NWS

Home | Current Version | Previous Version | Text Only | Print | Product List | Glossary On
Versions: 1 2 3 4 5 6 7 8 9 10 11 12 13 14 15 16
049
FTUS46 KSGX 241120
TAFCRQ
TAF
KCRQ 241120Z 2412/2512 14006KT P6SM SCT025 BKN035
      TEMPO 2412/2416 -SHRA BKN018
     FM241800 23009KT P6SM SCT025
     FM250200 VRB05KT P6SM BKN020 BKN035
      TEMPO 2510/2512 -SHRA BKN018=

USA.gov is the U.S. government's official web portal to all federal, state and local government web resources and services.